< Typhoon 201908 2019 Season Typhoon 201910 >
Typhoon 201909 (LEKIMA)
General InformationTrack Information on Google MapsDetailed Wind InformationForecast History on Google MapsAccess Analytics MapList of All Images || NewsDisaster Info.WeblogTrackbackTyphoon FrontTwiphoonTyphoon Now!Typhoon ImaginationJMA Disaster Info. XMLResourceGoogle EarthGE AnimationAtom FeedGeoJSON
Detalied Best Track (Time Zone = UTC)
Year Month Day Hour Lat. Long. Pressure (hPa) Wind (kt) Class Image Chart
2019 8 3 06 15.3 133.1 1000 30 2 Image Chart
2019 8 3 09 15.4 132.8 1000 30 2 Image Chart
2019 8 3 12 15.6 132.6 1000 30 2 Image Chart
2019 8 3 15 15.6 132.0 1000 30 2 Image Chart
2019 8 3 18 15.6 131.8 998 30 2 Image Chart
2019 8 3 21 16.3 132.0 998 30 2 Image Chart
2019 8 4 00 16.5 131.9 998 30 2 Image Chart
2019 8 4 03 17.0 131.9 998 30 2 Image Chart
2019 8 4 06 17.4 131.9 996 35 3 Image Chart
2019 8 4 09 17.5 131.1 996 35 3 Image Chart
2019 8 4 12 17.5 130.8 992 40 3 Image Chart
2019 8 4 15 17.8 130.7 992 40 3 Image Chart
2019 8 4 18 17.9 129.7 992 40 3 Image Chart
2019 8 4 21 18.0 129.7 992 40 3 Image Chart
2019 8 5 00 18.5 129.9 992 40 3 Image Chart
2019 8 5 03 18.7 129.8 992 40 3 Image Chart
2019 8 5 06 19.0 129.6 990 40 3 Image Chart
2019 8 5 09 19.0 129.5 990 40 3 Image Chart
2019 8 5 12 19.0 129.3 990 40 3 Image Chart
2019 8 5 15 18.9 129.3 990 40 3 Image Chart
2019 8 5 18 18.8 129.3 985 45 3 Image Chart
2019 8 5 21 18.3 129.3 985 45 3 Image Chart
2019 8 6 00 18.9 129.3 985 45 3 Image Chart
2019 8 6 03 19.0 129.3 985 45 3 Image Chart
2019 8 6 06 19.2 129.1 980 50 4 Image Chart
2019 8 6 09 19.5 128.8 975 55 4 Image Chart
2019 8 6 12 19.6 128.2 970 60 4 Image Chart
2019 8 6 15 19.7 128.1 970 60 4 Image Chart
2019 8 6 18 19.7 128.0 970 60 4 Image Chart
2019 8 6 21 19.7 128.0 960 65 5 Image Chart
2019 8 7 00 20.2 128.0 955 70 5 Image Chart
2019 8 7 03 20.6 128.0 955 70 5 Image Chart
2019 8 7 06 21.0 127.7 955 70 5 Image Chart
2019 8 7 09 21.4 127.5 950 75 5 Image Chart
2019 8 7 12 21.6 127.0 940 80 5 Image Chart
2019 8 7 15 21.8 126.6 935 85 5 Image Chart
2019 8 7 18 22.1 126.4 925 90 5 Image Chart
2019 8 7 21 22.4 126.2 925 90 5 Image Chart
2019 8 8 00 22.7 125.9 920 95 5 Image Chart
2019 8 8 03 23.2 125.8 920 95 5 Image Chart
2019 8 8 06 23.7 125.5 930 95 5 Image Chart
2019 8 8 09 24.0 125.3 930 95 5 Image Chart
2019 8 8 12 24.3 124.9 925 105 5 Image Chart
2019 8 8 15 24.9 124.8 925 105 5 Image Chart
2019 8 8 18 25.5 124.5 935 95 5 Image Chart
2019 8 8 21 26.0 124.0 935 95 5 Image Chart
2019 8 9 00 26.4 123.4 940 90 5 Image Chart
2019 8 9 03 26.8 122.9 940 90 5 Image Chart
2019 8 9 06 27.1 122.5 940 90 5 Image Chart
2019 8 9 09 27.3 122.3 940 90 5 Image Chart
2019 8 9 12 27.5 122.0 940 90 5 Image Chart
2019 8 9 15 27.9 121.8 940 90 5 Image Chart
2019 8 9 18 28.4 121.4 950 85 5 Image Chart
2019 8 9 21 28.7 121.0 950 85 5 Image Chart
2019 8 10 00 29.0 120.9 970 60 4 Image Chart
2019 8 10 03 29.5 120.8 975 55 4 Image Chart
2019 8 10 06 30.0 120.2 975 50 4 Image Chart
2019 8 10 09 30.4 120.4 980 45 3 Image Chart
2019 8 10 12 30.7 120.5 980 45 3 Image Chart
2019 8 10 15 31.1 120.5 980 45 3 Image Chart
2019 8 10 18 31.5 120.7 980 45 3 Image Chart
2019 8 10 21 32.5 120.6 980 45 3 Image Chart
2019 8 11 00 33.6 120.1 980 45 3 Image Chart
2019 8 11 03 34.2 119.8 980 45 3 Image Chart
2019 8 11 06 35.0 119.9 980 45 3 Image Chart
2019 8 11 09 35.5 120.0 980 45 3 Image Chart
2019 8 11 12 36.0 120.3 980 45 3 Image Chart
2019 8 11 15 36.5 120.0 980 45 3 Image Chart
2019 8 11 18 37.1 120.1 980 40 3 Image Chart
2019 8 11 21 37.8 119.8 980 40 3 Image Chart
2019 8 12 00 37.8 119.6 985 35 3 Image Chart
2019 8 12 03 37.8 119.5 985 35 3 Image Chart
2019 8 12 06 37.9 119.5 985 35 3 Image Chart
2019 8 12 09 37.4 119.4 985 35 3 Image Chart
2019 8 12 12 36.9 119.6 990 35 3 Image Chart
2019 8 12 15 36.8 119.7 990 35 3 Image Chart
2019 8 12 18 37.0 120.0 992 0 2 Image Chart
Japan Meteorological Agency Best Track Data | Correction Date : 2019-08-12
< Typhoon 201908 2019 Season Typhoon 201910 >

Help